createdAt,value
2019-03-26T00:01:11.699Z,5.40
2019-03-26T00:03:40.129Z,5.40
2019-03-26T00:06:08.536Z,5.50
2019-03-26T00:08:36.959Z,5.50
2019-03-26T00:11:05.364Z,5.50
2019-03-26T00:13:33.789Z,5.60
2019-03-26T00:16:02.214Z,5.60
2019-03-26T00:18:30.679Z,5.50
2019-03-26T00:20:59.084Z,5.50
2019-03-26T00:23:27.500Z,5.40
2019-03-26T00:25:55.904Z,5.50
2019-03-26T00:28:24.317Z,5.60
2019-03-26T00:30:52.708Z,5.70
2019-03-26T00:33:21.138Z,5.60
2019-03-26T00:35:49.539Z,5.50
2019-03-26T00:38:17.973Z,5.50
2019-03-26T00:40:46.436Z,5.50
2019-03-26T00:43:14.851Z,5.50
2019-03-26T00:45:43.258Z,5.40
2019-03-26T00:48:11.675Z,5.40
2019-03-26T00:50:40.088Z,5.30
2019-03-26T00:53:08.575Z,5.30
2019-03-26T00:55:36.995Z,5.20
2019-03-26T00:58:05.394Z,5.20
2019-03-26T01:00:38.748Z,5.10
2019-03-26T01:03:07.159Z,5.10
2019-03-26T01:05:35.635Z,5.10
2019-03-26T01:08:04.147Z,5.10
2019-03-26T01:10:32.543Z,5.00
2019-03-26T01:13:00.975Z,5.00
2019-03-26T01:15:29.379Z,5.00
2019-03-26T01:17:57.788Z,5.10
2019-03-26T01:20:26.263Z,5.20
2019-03-26T01:22:54.690Z,5.20
2019-03-26T01:25:23.089Z,5.30
2019-03-26T01:27:51.571Z,5.30
2019-03-26T01:30:19.966Z,5.30
2019-03-26T01:32:48.370Z,5.30
2019-03-26T01:35:16.771Z,5.40
2019-03-26T01:37:45.191Z,5.40
2019-03-26T01:40:13.763Z,5.40
2019-03-26T01:42:42.255Z,5.30
2019-03-26T01:45:11.393Z,5.30
2019-03-26T01:47:39.820Z,5.20
2019-03-26T01:50:08.452Z,5.20
2019-03-26T01:52:36.870Z,5.20
2019-03-26T01:55:06.617Z,5.10
2019-03-26T01:57:35.032Z,5.00
2019-03-26T02:00:05.475Z,4.90
2019-03-26T02:02:33.883Z,4.90
2019-03-26T02:05:02.290Z,4.80
2019-03-26T02:07:30.688Z,4.70
2019-03-26T02:09:59.108Z,4.60
2019-03-26T02:12:27.503Z,4.60
2019-03-26T02:14:55.928Z,4.60
2019-03-26T02:17:24.360Z,4.60
2019-03-26T02:19:52.775Z,4.60
2019-03-26T02:22:21.187Z,4.60
2019-03-26T02:24:49.596Z,4.50
2019-03-26T02:27:18.006Z,4.60
2019-03-26T02:29:48.072Z,4.50
2019-03-26T02:32:16.468Z,4.40
2019-03-26T02:34:44.888Z,4.50
2019-03-26T02:37:13.336Z,4.40
2019-03-26T02:39:41.846Z,4.30
2019-03-26T02:42:10.244Z,4.30
2019-03-26T02:44:38.667Z,4.30
2019-03-26T02:47:07.090Z,4.20
2019-03-26T02:49:35.510Z,4.20
2019-03-26T02:52:03.910Z,4.30
2019-03-26T02:54:32.344Z,4.30
2019-03-26T02:57:00.727Z,4.30
2019-03-26T02:59:29.188Z,4.30
2019-03-26T03:01:57.573Z,4.20
2019-03-26T03:04:26.064Z,4.10
2019-03-26T03:06:54.538Z,4.10
2019-03-26T03:09:23.005Z,4.00
2019-03-26T03:11:51.462Z,4.00
2019-03-26T03:14:19.886Z,4.10
2019-03-26T03:16:48.289Z,4.10
2019-03-26T03:19:16.838Z,4.10
2019-03-26T03:21:45.247Z,4.10
2019-03-26T03:24:13.657Z,4.10
2019-03-26T03:26:42.074Z,4.10
2019-03-26T03:29:10.545Z,4.10
2019-03-26T03:31:39.005Z,4.10
2019-03-26T03:34:07.464Z,4.10
2019-03-26T03:36:35.888Z,4.10
2019-03-26T03:39:06.533Z,4.10
2019-03-26T03:41:35.010Z,4.00
2019-03-26T03:44:03.729Z,4.00
2019-03-26T03:46:32.228Z,4.00
2019-03-26T03:49:01.170Z,4.00
2019-03-26T03:51:30.548Z,4.00
2019-03-26T03:53:59.492Z,3.90
2019-03-26T03:56:29.433Z,3.80
2019-03-26T03:59:00.081Z,3.80
2019-03-26T04:01:28.504Z,3.90
2019-03-26T04:03:56.920Z,3.90
2019-03-26T04:06:25.341Z,3.90
2019-03-26T04:08:53.745Z,3.90
2019-03-26T04:11:22.178Z,3.70
2019-03-26T04:13:50.600Z,3.60
2019-03-26T04:16:19.022Z,3.60
2019-03-26T04:18:47.426Z,3.50
2019-03-26T04:21:16.019Z,3.50
2019-03-26T04:23:44.423Z,3.50
2019-03-26T04:26:12.827Z,3.50
2019-03-26T04:28:41.240Z,3.50
2019-03-26T04:31:10.097Z,3.50
2019-03-26T04:33:38.513Z,3.30
2019-03-26T04:36:06.926Z,3.30
2019-03-26T04:38:35.342Z,3.40
2019-03-26T04:41:03.761Z,3.50
2019-03-26T04:43:32.170Z,3.40
2019-03-26T04:46:00.608Z,3.40
2019-03-26T04:48:29.010Z,3.20
2019-03-26T04:50:57.452Z,3.20
2019-03-26T04:53:25.851Z,3.30
2019-03-26T04:55:54.288Z,3.30
2019-03-26T04:58:25.145Z,3.30
2019-03-26T05:00:53.613Z,3.20
2019-03-26T05:03:22.088Z,3.20
2019-03-26T05:05:50.494Z,3.20
2019-03-26T05:08:18.922Z,3.10
2019-03-26T05:10:49.200Z,3.00
2019-03-26T05:13:17.500Z,3.00
2019-03-26T05:15:45.926Z,3.10
2019-03-26T05:18:14.327Z,3.10
2019-03-26T05:20:42.754Z,3.10
2019-03-26T05:23:11.205Z,3.10
2019-03-26T05:25:39.615Z,3.00
2019-03-26T05:28:08.030Z,3.00
2019-03-26T05:30:36.443Z,3.00
2019-03-26T05:33:04.839Z,3.00
2019-03-26T05:35:33.278Z,3.10
2019-03-26T05:38:01.670Z,3.10
2019-03-26T05:40:30.113Z,3.10
2019-03-26T05:42:58.777Z,3.00
2019-03-26T05:45:27.277Z,2.90
2019-03-26T05:47:55.687Z,2.90
2019-03-26T05:50:24.135Z,3.00
2019-03-26T05:52:52.550Z,3.20
2019-03-26T05:55:20.961Z,3.30
2019-03-26T05:57:49.372Z,3.40
2019-03-26T06:00:21.070Z,3.50
2019-03-26T06:02:49.499Z,3.70
2019-03-26T06:05:17.911Z,4.00
2019-03-26T06:07:46.314Z,4.10
2019-03-26T06:10:14.961Z,4.30
2019-03-26T06:12:43.356Z,4.50
2019-03-26T06:15:12.217Z,4.70
2019-03-26T06:17:40.616Z,4.70
2019-03-26T06:20:11.267Z,4.80
2019-03-26T06:22:39.751Z,5.00
2019-03-26T06:25:08.901Z,5.20
2019-03-26T06:27:37.331Z,5.40
2019-03-26T06:30:08.468Z,5.60
2019-03-26T06:32:37.014Z,5.60
2019-03-26T06:35:10.272Z,5.60
2019-03-26T06:37:38.696Z,5.60
2019-03-26T06:40:09.439Z,5.70
2019-03-26T06:42:37.902Z,5.90
2019-03-26T06:45:10.423Z,6.10
2019-03-26T06:47:38.938Z,6.30
2019-03-26T06:50:11.802Z,6.40
2019-03-26T06:52:40.278Z,6.60
2019-03-26T06:55:09.823Z,6.70
2019-03-26T06:57:38.299Z,6.70
2019-03-26T07:00:09.389Z,6.80
2019-03-26T07:02:38.297Z,6.90
2019-03-26T07:05:07.756Z,6.90
2019-03-26T07:07:36.167Z,7.10
2019-03-26T07:10:08.952Z,7.40
2019-03-26T07:12:37.375Z,7.70
2019-03-26T07:15:08.816Z,7.80
2019-03-26T07:17:37.672Z,7.80
2019-03-26T07:20:08.306Z,8.00
2019-03-26T07:22:36.797Z,7.90
2019-03-26T07:25:08.262Z,8.10
2019-03-26T07:27:37.033Z,8.10
2019-03-26T07:30:07.656Z,8.30
2019-03-26T07:32:36.159Z,8.40
2019-03-26T07:35:06.890Z,8.40
2019-03-26T07:37:45.086Z,8.40
2019-03-26T07:40:07.280Z,8.60
2019-03-26T07:42:35.716Z,8.90
2019-03-26T07:45:05.859Z,9.20
2019-03-26T07:47:34.287Z,9.30
2019-03-26T07:50:02.683Z,9.40
2019-03-26T07:52:31.115Z,9.30
2019-03-26T07:54:59.527Z,9.40
2019-03-26T07:57:27.973Z,9.50
2019-03-26T07:59:56.380Z,9.70
2019-03-26T08:02:24.791Z,9.90
2019-03-26T08:04:53.208Z,10.00
2019-03-26T08:07:21.670Z,10.30
2019-03-26T08:09:50.131Z,10.30
2019-03-26T08:12:18.599Z,10.50
2019-03-26T08:14:47.116Z,10.70
2019-03-26T08:17:15.555Z,10.70
2019-03-26T08:19:43.938Z,10.80
2019-03-26T08:22:12.384Z,10.80
2019-03-26T08:24:40.783Z,11.00
2019-03-26T08:27:09.207Z,11.10
2019-03-26T08:29:37.620Z,11.20
2019-03-26T08:32:06.135Z,11.30
2019-03-26T08:34:34.570Z,11.60
2019-03-26T08:37:03.161Z,11.80
2019-03-26T08:39:31.580Z,11.90
2019-03-26T08:42:00.011Z,11.80
2019-03-26T08:44:28.422Z,11.40
2019-03-26T08:46:56.851Z,10.60
2019-03-26T08:49:30.643Z,10.50
2019-03-26T08:51:55.423Z,10.90
2019-03-26T08:54:23.835Z,11.30
2019-03-26T08:56:52.236Z,11.60
2019-03-26T08:59:20.656Z,11.90
2019-03-26T09:01:49.227Z,12.20
2019-03-26T09:04:17.640Z,12.40
2019-03-26T09:06:46.035Z,12.40
2019-03-26T09:09:14.479Z,12.50
2019-03-26T09:11:42.883Z,12.80
2019-03-26T09:14:11.299Z,12.50
2019-03-26T09:16:39.707Z,12.10
2019-03-26T09:19:08.127Z,11.70
2019-03-26T09:21:36.528Z,11.50
2019-03-26T09:24:04.955Z,11.10
2019-03-26T09:26:33.408Z,10.80
2019-03-26T09:29:01.826Z,10.50
2019-03-26T09:31:30.263Z,10.30
2019-03-26T09:33:58.685Z,10.00
2019-03-26T09:36:27.088Z,10.10
2019-03-26T09:38:55.519Z,10.00
2019-03-26T09:41:23.915Z,9.90
2019-03-26T09:43:52.337Z,9.60
2019-03-26T09:46:20.803Z,9.30
2019-03-26T09:48:49.237Z,9.40
2019-03-26T09:51:17.623Z,9.30
2019-03-26T09:53:46.055Z,9.20
2019-03-26T09:56:27.698Z,9.20
2019-03-26T09:58:44.653Z,9.10
2019-03-26T10:01:13.047Z,9.00
2019-03-26T10:03:41.495Z,8.80
2019-03-26T10:06:22.601Z,9.00
2019-03-26T10:08:51.784Z,9.30
2019-03-26T10:11:10.181Z,9.60
2019-03-26T10:13:38.595Z,9.60
2019-03-26T10:16:07.087Z,9.50
2019-03-26T10:18:35.496Z,9.40
2019-03-26T10:21:03.901Z,9.60
2019-03-26T10:23:32.336Z,9.80
2019-03-26T10:26:00.716Z,9.80
2019-03-26T10:28:29.132Z,9.80
2019-03-26T10:30:57.535Z,9.80
2019-03-26T10:33:25.954Z,9.70
2019-03-26T10:35:54.351Z,9.70
2019-03-26T10:38:22.767Z,9.80
2019-03-26T10:40:51.172Z,9.80
2019-03-26T10:43:19.589Z,9.80
2019-03-26T10:45:48.013Z,9.80
2019-03-26T10:48:16.441Z,10.10
2019-03-26T10:50:44.861Z,10.40
2019-03-26T10:53:13.285Z,10.60
2019-03-26T10:55:41.685Z,10.60
2019-03-26T10:58:10.172Z,10.40
2019-03-26T11:00:38.590Z,10.30
2019-03-26T11:03:07.008Z,10.20
2019-03-26T11:05:35.486Z,10.40
2019-03-26T11:08:03.966Z,10.60
2019-03-26T11:10:32.392Z,10.80
2019-03-26T11:13:00.801Z,11.20
2019-03-26T11:15:29.292Z,11.30
2019-03-26T11:17:57.698Z,11.60
2019-03-26T11:20:26.131Z,11.60
2019-03-26T11:22:54.543Z,11.50
2019-03-26T11:25:22.951Z,11.30
2019-03-26T11:27:51.366Z,11.20
2019-03-26T11:30:19.882Z,11.30
2019-03-26T11:32:48.290Z,10.90
2019-03-26T11:35:16.723Z,11.10
2019-03-26T11:37:45.156Z,11.30
2019-03-26T11:40:13.687Z,12.10
2019-03-26T11:42:42.098Z,12.90
2019-03-26T11:45:11.192Z,13.10
2019-03-26T11:47:40.247Z,12.80
2019-03-26T11:50:10.203Z,12.30
2019-03-26T11:52:39.663Z,12.00
2019-03-26T11:55:10.470Z,11.80
2019-03-26T11:57:38.900Z,12.20
2019-03-26T12:00:09.436Z,12.20
2019-03-26T12:02:37.882Z,12.30
2019-03-26T12:05:08.063Z,12.00
2019-03-26T12:07:37.129Z,12.50
2019-03-26T12:10:08.989Z,12.10
2019-03-26T12:12:37.609Z,11.80
2019-03-26T12:15:10.562Z,11.50
2019-03-26T12:17:38.975Z,11.40
2019-03-26T12:20:08.158Z,11.40
2019-03-26T12:22:36.626Z,11.30
2019-03-26T12:25:07.027Z,11.30
2019-03-26T12:27:36.750Z,11.20
2019-03-26T12:30:07.739Z,11.30
2019-03-26T12:32:36.187Z,11.30
2019-03-26T12:35:07.764Z,12.10
2019-03-26T12:37:36.274Z,13.60
2019-03-26T12:40:06.592Z,13.60
2019-03-26T12:42:35.019Z,13.50
2019-03-26T12:45:06.769Z,13.10
2019-03-26T12:47:34.245Z,12.50
2019-03-26T12:50:03.111Z,12.40
2019-03-26T12:52:31.573Z,12.10
2019-03-26T12:55:00.109Z,11.90
2019-03-26T12:57:28.771Z,12.00
2019-03-26T12:59:57.183Z,12.00
2019-03-26T13:02:25.597Z,12.20
2019-03-26T13:04:54.025Z,12.50
2019-03-26T13:07:22.511Z,12.50
2019-03-26T13:09:50.899Z,12.30
2019-03-26T13:12:19.315Z,12.20
2019-03-26T13:14:47.711Z,12.00
2019-03-26T13:17:16.132Z,11.90
2019-03-26T13:19:44.551Z,11.90
2019-03-26T13:22:12.960Z,11.80
2019-03-26T13:24:41.364Z,11.90
2019-03-26T13:27:09.792Z,11.90
2019-03-26T13:29:38.196Z,12.10
2019-03-26T13:32:06.601Z,12.00
2019-03-26T13:34:35.015Z,12.00
2019-03-26T13:37:03.427Z,11.90
2019-03-26T13:39:31.836Z,11.90
2019-03-26T13:42:00.235Z,12.10
2019-03-26T13:44:28.662Z,11.90
2019-03-26T13:46:57.071Z,11.90
2019-03-26T13:49:25.477Z,11.80
2019-03-26T13:51:53.895Z,11.80
2019-03-26T13:54:22.305Z,11.90
2019-03-26T13:56:50.699Z,12.00
2019-03-26T13:59:19.252Z,11.90
2019-03-26T14:01:47.667Z,11.80
2019-03-26T14:04:16.077Z,12.30
2019-03-26T14:06:44.480Z,13.30
2019-03-26T14:09:12.895Z,13.70
2019-03-26T14:11:41.318Z,14.00
2019-03-26T14:14:09.737Z,13.90
2019-03-26T14:16:38.182Z,13.80
2019-03-26T14:19:06.609Z,13.60
2019-03-26T14:21:35.013Z,13.20
2019-03-26T14:24:03.428Z,12.90
2019-03-26T14:26:31.848Z,12.80
2019-03-26T14:29:00.254Z,12.40
2019-03-26T14:31:28.674Z,12.30
2019-03-26T14:33:57.090Z,12.30
2019-03-26T14:36:25.518Z,12.20
2019-03-26T14:38:53.939Z,12.40
2019-03-26T14:41:22.341Z,13.00
2019-03-26T14:43:50.773Z,13.60
2019-03-26T14:46:19.389Z,13.40
2019-03-26T14:48:47.817Z,13.00
2019-03-26T14:51:16.206Z,12.90
2019-03-26T14:53:44.627Z,12.80
2019-03-26T14:56:13.027Z,12.70
2019-03-26T14:58:41.452Z,13.00
2019-03-26T15:01:09.855Z,13.50
2019-03-26T15:03:38.260Z,14.00
2019-03-26T15:06:06.714Z,13.80
2019-03-26T15:08:35.106Z,13.40
2019-03-26T15:11:08.216Z,13.10
2019-03-26T15:13:33.732Z,12.60
2019-03-26T15:16:02.156Z,12.30
2019-03-26T15:18:30.557Z,12.10
2019-03-26T15:20:58.963Z,12.00
2019-03-26T15:23:27.435Z,12.00
2019-03-26T15:25:55.916Z,11.90
2019-03-26T15:28:24.337Z,11.90
2019-03-26T15:30:52.751Z,11.80
2019-03-26T15:33:21.146Z,11.60
2019-03-26T15:35:49.577Z,11.60
2019-03-26T15:38:18.036Z,11.60
2019-03-26T15:40:46.448Z,11.70
2019-03-26T15:43:14.876Z,11.70
2019-03-26T15:45:45.497Z,11.80
2019-03-26T15:48:13.633Z,11.90
2019-03-26T15:50:44.322Z,11.90
2019-03-26T15:53:13.080Z,11.90
2019-03-26T15:55:41.945Z,11.70
2019-03-26T15:58:10.426Z,11.70
2019-03-26T16:00:39.919Z,11.50
2019-03-26T16:03:08.407Z,11.60
2019-03-26T16:05:36.871Z,11.50
2019-03-26T16:08:05.287Z,11.50
2019-03-26T16:10:33.695Z,11.50
2019-03-26T16:13:02.151Z,11.40
2019-03-26T16:15:43.138Z,11.40
2019-03-26T16:18:00.728Z,11.30
2019-03-26T16:20:29.161Z,11.30
2019-03-26T16:22:57.593Z,11.40
2019-03-26T16:25:26.011Z,11.40
2019-03-26T16:27:54.418Z,11.40
2019-03-26T16:30:22.850Z,11.40
2019-03-26T16:32:51.267Z,11.40
2019-03-26T16:35:19.708Z,11.40
2019-03-26T16:37:48.141Z,11.40
2019-03-26T16:40:16.543Z,11.30
2019-03-26T16:42:44.964Z,11.20
2019-03-26T16:45:13.532Z,11.10
2019-03-26T16:47:41.956Z,11.00
2019-03-26T16:50:10.611Z,10.90
2019-03-26T16:52:39.022Z,10.90
2019-03-26T16:55:07.671Z,11.00
2019-03-26T16:57:36.167Z,11.10
2019-03-26T17:00:09.368Z,11.10
2019-03-26T17:02:37.794Z,11.20
2019-03-26T17:05:06.674Z,11.20
2019-03-26T17:07:35.077Z,11.20
2019-03-26T17:10:05.067Z,11.20
2019-03-26T17:12:33.463Z,11.20
2019-03-26T17:15:01.929Z,11.10
2019-03-26T17:17:30.335Z,11.20
2019-03-26T17:19:59.613Z,11.10
2019-03-26T17:22:29.728Z,11.00
2019-03-26T17:24:58.252Z,11.10
2019-03-26T17:27:28.984Z,11.00
2019-03-26T17:29:56.981Z,11.00
2019-03-26T17:32:25.390Z,10.80
2019-03-26T17:34:53.791Z,10.70
2019-03-26T17:37:22.302Z,10.70
2019-03-26T17:39:50.710Z,10.70
2019-03-26T17:42:19.132Z,10.60
2019-03-26T17:44:47.559Z,10.70
2019-03-26T17:47:15.992Z,10.70
2019-03-26T17:49:44.377Z,10.70
2019-03-26T17:52:12.804Z,10.60
2019-03-26T17:54:41.219Z,10.40
2019-03-26T17:57:09.619Z,10.20
2019-03-26T17:59:38.354Z,10.20
2019-03-26T18:02:06.822Z,10.20
2019-03-26T18:04:35.406Z,10.20
2019-03-26T18:07:05.425Z,10.30
2019-03-26T18:09:34.197Z,10.20
2019-03-26T18:12:02.620Z,10.10
2019-03-26T18:14:31.032Z,10.20
2019-03-26T18:16:59.965Z,10.10
2019-03-26T18:19:28.437Z,10.10
2019-03-26T18:21:56.892Z,10.10
2019-03-26T18:24:25.335Z,10.20
2019-03-26T18:26:54.028Z,10.20
2019-03-26T18:29:22.453Z,10.30
2019-03-26T18:31:50.878Z,10.30
2019-03-26T18:34:19.369Z,10.20
2019-03-26T18:36:47.796Z,10.20
2019-03-26T18:39:16.223Z,10.10
2019-03-26T18:41:45.750Z,10.20
2019-03-26T18:44:14.136Z,10.20
2019-03-26T18:46:42.656Z,10.10
2019-03-26T18:49:11.212Z,10.00
2019-03-26T18:51:42.083Z,10.00
2019-03-26T18:54:10.615Z,10.00
2019-03-26T18:56:39.072Z,10.00
2019-03-26T18:59:07.932Z,10.10
2019-03-26T19:01:38.304Z,10.00
2019-03-26T19:04:06.758Z,10.00
2019-03-26T19:06:35.201Z,10.00
2019-03-26T19:09:04.677Z,9.90
2019-03-26T19:11:33.174Z,9.90
2019-03-26T19:14:01.734Z,9.80
2019-03-26T19:16:30.267Z,9.80
2019-03-26T19:18:58.786Z,9.90
2019-03-26T19:21:27.277Z,9.90
2019-03-26T19:24:03.857Z,9.90
2019-03-26T19:26:25.814Z,9.90
2019-03-26T19:28:54.512Z,9.80
2019-03-26T19:31:22.931Z,9.80
2019-03-26T19:33:51.363Z,9.90
2019-03-26T19:36:19.932Z,9.70
2019-03-26T19:38:48.416Z,9.60
2019-03-26T19:41:16.863Z,9.60
2019-03-26T19:43:45.246Z,9.60
2019-03-26T19:46:13.634Z,9.60
2019-03-26T19:48:44.773Z,9.50
2019-03-26T19:51:13.164Z,9.60
2019-03-26T19:53:43.371Z,9.70
2019-03-26T19:56:11.753Z,9.70
2019-03-26T19:58:40.191Z,9.70
2019-03-26T20:01:08.599Z,9.60
2019-03-26T20:03:37.095Z,9.40
2019-03-26T20:06:13.236Z,9.40
2019-03-26T20:08:35.654Z,9.30
2019-03-26T20:11:04.059Z,9.30
2019-03-26T20:13:32.538Z,9.20
2019-03-26T20:16:01.070Z,9.20
2019-03-26T20:18:29.518Z,9.10
2019-03-26T20:20:58.093Z,8.90
2019-03-26T20:23:26.496Z,8.80
2019-03-26T20:25:54.942Z,8.80
2019-03-26T20:28:26.583Z,8.80
2019-03-26T20:30:53.918Z,8.70
2019-03-26T20:33:22.532Z,8.70
2019-03-26T20:35:51.592Z,8.60
2019-03-26T20:38:20.010Z,8.60
2019-03-26T20:40:48.407Z,8.60
2019-03-26T20:43:16.977Z,8.60
2019-03-26T20:45:45.562Z,8.50
2019-03-26T20:48:14.078Z,8.30
2019-03-26T20:50:42.595Z,8.30
2019-03-26T20:53:11.015Z,8.30
2019-03-26T20:55:39.479Z,8.30
2019-03-26T20:58:08.095Z,8.20
2019-03-26T21:00:39.111Z,8.20
2019-03-26T21:03:07.643Z,8.10
2019-03-26T21:05:36.041Z,8.00
2019-03-26T21:08:05.111Z,8.00
2019-03-26T21:10:33.859Z,8.00
2019-03-26T21:13:02.291Z,8.00
2019-03-26T21:15:30.786Z,8.10
2019-03-26T21:17:59.208Z,8.10
2019-03-26T21:20:27.678Z,8.00
2019-03-26T21:22:56.197Z,8.10
2019-03-26T21:25:24.742Z,8.10
2019-03-26T21:27:53.184Z,8.10
2019-03-26T21:30:21.721Z,8.20
2019-03-26T21:32:50.143Z,8.20
2019-03-26T21:35:18.613Z,8.20
2019-03-26T21:37:47.039Z,8.10
2019-03-26T21:40:15.709Z,8.00
2019-03-26T21:42:44.140Z,7.90
2019-03-26T21:45:13.421Z,7.70
2019-03-26T21:47:41.835Z,7.80
2019-03-26T21:50:10.465Z,7.80
2019-03-26T21:52:38.885Z,7.80
2019-03-26T21:55:08.814Z,7.80
2019-03-26T21:57:37.258Z,7.80
2019-03-26T22:00:10.064Z,7.80
2019-03-26T22:02:38.458Z,7.90
2019-03-26T22:05:08.749Z,7.90
2019-03-26T22:07:37.328Z,8.00
2019-03-26T22:10:09.439Z,8.00
2019-03-26T22:12:38.015Z,8.10
2019-03-26T22:15:10.671Z,8.20
2019-03-26T22:17:39.073Z,8.20
2019-03-26T22:20:08.217Z,8.30
2019-03-26T22:22:36.789Z,8.30
2019-03-26T22:25:08.931Z,8.20
2019-03-26T22:27:37.694Z,8.10
2019-03-26T22:30:09.125Z,8.00
2019-03-26T22:32:37.627Z,7.80
2019-03-26T22:35:08.235Z,7.80
2019-03-26T22:37:36.664Z,7.80
2019-03-26T22:40:07.773Z,7.80
2019-03-26T22:42:36.235Z,7.80
2019-03-26T22:45:09.251Z,7.80
2019-03-26T22:47:39.959Z,7.80
2019-03-26T22:50:09.677Z,7.90
2019-03-26T22:52:38.175Z,7.90
2019-03-26T22:55:10.840Z,7.90
2019-03-26T22:57:39.711Z,8.00
2019-03-26T23:00:14.033Z,8.00
2019-03-26T23:03:01.862Z,8.00
2019-03-26T23:05:30.261Z,8.00
2019-03-26T23:07:58.673Z,8.00
2019-03-26T23:10:27.147Z,8.00
2019-03-26T23:12:55.606Z,8.00
2019-03-26T23:15:25.927Z,8.00
2019-03-26T23:17:54.335Z,8.00
2019-03-26T23:20:23.529Z,7.90
2019-03-26T23:22:51.976Z,7.80
2019-03-26T23:25:20.364Z,7.60
2019-03-26T23:27:48.778Z,7.60
2019-03-26T23:30:17.921Z,7.60
2019-03-26T23:32:46.343Z,7.50
2019-03-26T23:35:15.190Z,7.50
2019-03-26T23:37:43.880Z,7.60
2019-03-26T23:40:12.717Z,7.60
2019-03-26T23:42:41.107Z,7.50
2019-03-26T23:45:09.864Z,7.50
2019-03-26T23:47:38.259Z,7.50
2019-03-26T23:50:09.834Z,7.50
2019-03-26T23:52:38.291Z,7.60
2019-03-26T23:55:07.775Z,7.50
2019-03-26T23:57:37.640Z,7.50
